Time;durP1;ratioP1;P1;durP2;ratioP2;P2;SDS_P1;SDS_P2;PMS_P1;PMS_P2;Temp;Humidity;BMP_temperature;BMP_pressure;BME280_temperature;BME280_humidity;BME280_pressure;Samples;Min_cycle;Max_cycle;Signal;HPM_P1;HPM_P2
2022/07/28 00:00:11;;;;;;;5.30;3.93;;;20.00;15.40;;;;;;5024950;28;20475;-58
2022/07/28 00:02:38;;;;;;;7.97;3.97;;;20.00;15.50;;;;;;5025009;28;21298;-58
2022/07/28 00:05:05;;;;;;;7.83;3.70;;;19.90;15.60;;;;;;5026434;28;20458;-58
2022/07/28 00:07:32;;;;;;;5.30;3.50;;;19.90;15.80;;;;;;5025911;28;20466;-57
2022/07/28 00:09:59;;;;;;;6.67;2.70;;;19.80;16.00;;;;;;5026642;28;20505;-58
2022/07/28 00:12:27;;;;;;;5.50;2.83;;;19.70;16.00;;;;;;5024490;28;20466;-57
2022/07/28 00:14:53;;;;;;;7.30;3.13;;;19.70;16.30;;;;;;5025612;28;20478;-57
2022/07/28 00:17:20;;;;;;;6.37;3.23;;;19.70;16.40;;;;;;5025520;28;20450;-57
2022/07/28 00:19:47;;;;;;;4.70;2.37;;;19.60;16.60;;;;;;5034780;28;20502;-58
2022/07/28 00:22:14;;;;;;;8.63;3.43;;;19.60;16.70;;;;;;5028637;28;20466;-58
2022/07/28 00:24:40;;;;;;;6.17;3.13;;;19.50;16.80;;;;;;5022437;28;20502;-58
2022/07/28 00:27:08;;;;;;;7.70;3.60;;;19.50;16.90;;;;;;5022065;28;20459;-58
2022/07/28 00:29:36;;;;;;;9.00;2.77;;;19.40;17.20;;;;;;5024706;28;20482;-58
2022/07/28 00:32:03;;;;;;;5.43;3.47;;;19.40;17.20;;;;;;5026186;28;20471;-58
2022/07/28 00:34:30;;;;;;;6.73;3.20;;;19.30;17.30;;;;;;5024262;28;20455;-58
2022/07/28 00:36:56;;;;;;;9.23;3.47;;;19.30;17.40;;;;;;5026251;28;20458;-58
2022/07/28 00:39:23;;;;;;;6.57;3.57;;;19.30;17.50;;;;;;5025016;28;21245;-58
2022/07/28 00:41:50;;;;;;;9.00;4.00;;;19.20;17.50;;;;;;5026594;28;20831;-58
2022/07/28 00:44:17;;;;;;;6.10;3.07;;;19.20;17.70;;;;;;5026161;28;21014;-58
2022/07/28 00:46:45;;;;;;;5.87;3.70;;;19.10;17.80;;;;;;5023649;28;20479;-58
2022/07/28 00:49:13;;;;;;;7.00;4.17;;;19.10;18.00;;;;;;5025786;28;20491;-58
2022/07/28 00:51:40;;;;;;;7.23;3.80;;;19.00;18.10;;;;;;5029160;28;20519;-59
2022/07/28 00:54:07;;;;;;;7.80;3.50;;;19.00;18.30;;;;;;5025120;28;20467;-59
2022/07/28 00:56:34;;;;;;;6.70;2.80;;;18.90;18.40;;;;;;5022941;28;20459;-58
2022/07/28 00:59:01;;;;;;;5.70;3.30;;;18.90;18.30;;;;;;5024172;28;20489;-58
2022/07/28 01:01:28;;;;;;;13.27;4.27;;;18.80;18.30;;;;;;5023895;28;20998;-58
2022/07/28 01:03:59;;;;;;;9.20;3.93;;;18.80;18.40;;;;;;5026051;28;20474;-58
2022/07/28 01:06:39;;;;;;;7.93;3.70;;;18.70;18.50;;;;;;5021908;28;20554;-57
2022/07/28 01:09:13;;;;;;;6.00;3.20;;;18.70;18.80;;;;;;5023766;28;20489;-59
2022/07/28 01:11:48;;;;;;;7.00;3.70;;;18.60;18.70;;;;;;5024631;28;20471;-58
2022/07/28 01:14:23;;;;;;;10.23;3.57;;;18.60;18.80;;;;;;5025810;28;20462;-58
2022/07/28 01:16:56;;;;;;;5.60;3.27;;;18.50;18.90;;;;;;5024648;28;20459;-58
2022/07/28 01:19:38;;;;;;;8.83;3.40;;;18.50;18.90;;;;;;5025308;28;20677;-58
2022/07/28 01:22:09;;;;;;;7.90;3.73;;;18.40;19.00;;;;;;5023692;28;20466;-57
2022/07/28 01:24:47;;;;;;;6.70;3.67;;;18.40;19.10;;;;;;5024941;28;20458;-57
2022/07/28 01:27:29;;;;;;;7.90;4.10;;;18.40;19.00;;;;;;5021444;28;20458;-58
2022/07/28 01:30:04;;;;;;;8.13;3.97;;;18.30;19.30;;;;;;5024968;28;20478;-58
2022/07/28 01:32:38;;;;;;;6.83;4.03;;;18.30;19.50;;;;;;5025039;28;20466;-58
2022/07/28 01:35:14;;;;;;;7.40;3.97;;;18.20;19.60;;;;;;5024502;28;20988;-58
2022/07/28 01:37:44;;;;;;;5.90;4.13;;;18.20;19.80;;;;;;5024816;28;20459;-58
2022/07/28 01:40:16;;;;;;;7.27;3.97;;;18.10;20.00;;;;;;5020561;28;20486;-58
2022/07/28 01:42:48;;;;;;;9.07;4.70;;;18.10;20.10;;;;;;5026213;28;20454;-58
2022/07/28 01:45:15;;;;;;;5.97;4.17;;;18.10;20.50;;;;;;5024448;28;20463;-58
2022/07/28 01:47:46;;;;;;;9.10;4.40;;;18.00;20.50;;;;;;5022507;28;20477;-58
2022/07/28 01:50:16;;;;;;;7.03;4.63;;;18.00;20.90;;;;;;5023721;28;20533;-58
2022/07/28 01:52:46;;;;;;;8.43;4.77;;;18.00;21.10;;;;;;5024202;28;20456;-58
2022/07/28 01:55:14;;;;;;;7.93;4.60;;;18.00;21.20;;;;;;5026659;28;20463;-58
2022/07/28 01:57:41;;;;;;;7.83;4.40;;;17.90;21.40;;;;;;5024515;28;20459;-58
2022/07/28 02:00:11;;;;;;;6.33;4.20;;;17.90;21.60;;;;;;5025814;28;21317;-58
2022/07/28 02:02:39;;;;;;;6.97;4.97;;;17.90;21.80;;;;;;5022891;28;20467;-58
2022/07/28 02:05:09;;;;;;;8.90;5.30;;;17.80;22.00;;;;;;5025971;28;20459;-58
2022/07/28 02:07:38;;;;;;;9.13;5.57;;;17.80;22.20;;;;;;5022565;28;20459;-58
2022/07/28 02:10:07;;;;;;;8.27;5.30;;;17.80;22.50;;;;;;5025516;28;20536;-58
2022/07/28 02:12:35;;;;;;;9.20;5.00;;;17.80;22.50;;;;;;5023841;28;20475;-58
2022/07/28 02:15:03;;;;;;;9.63;5.30;;;17.70;22.90;;;;;;5024462;28;20462;-58
2022/07/28 02:17:32;;;;;;;9.90;5.40;;;17.70;22.90;;;;;;5022385;28;21141;-56
2022/07/28 02:20:00;;;;;;;7.40;4.80;;;17.70;23.20;;;;;;5025176;28;20945;-58
2022/07/28 02:22:30;;;;;;;9.07;5.10;;;17.70;23.30;;;;;;5024034;28;20462;-58
2022/07/28 02:24:56;;;;;;;10.00;6.10;;;17.70;23.30;;;;;;5026493;28;20462;-58
2022/07/28 02:27:28;;;;;;;8.57;5.77;;;17.70;23.50;;;;;;5022709;28;20496;-58
2022/07/28 02:30:03;;;;;;;9.90;4.83;;;17.70;23.70;;;;;;5020687;28;20972;-58
2022/07/28 02:32:38;;;;;;;8.83;5.73;;;17.60;23.80;;;;;;5001916;28;20478;-58
2022/07/28 02:35:09;;;;;;;9.00;5.63;;;17.60;23.80;;;;;;5002101;28;20464;-57
2022/07/28 02:37:39;;;;;;;9.00;5.57;;;17.60;23.90;;;;;;4999890;28;20503;-57
2022/07/28 02:40:12;;;;;;;11.30;6.17;;;17.50;24.50;;;;;;4998908;28;21067;-58
2022/07/28 02:42:41;;;;;;;13.20;7.30;;;17.60;24.60;;;;;;5002156;28;20457;-57
2022/07/28 02:45:12;;;;;;;8.83;5.80;;;17.50;24.40;;;;;;5000915;28;20460;-58
2022/07/28 02:47:46;;;;;;;9.50;5.90;;;17.50;24.80;;;;;;5002239;28;20459;-57
2022/07/28 02:50:15;;;;;;;10.60;5.50;;;17.50;25.00;;;;;;5004515;28;20476;-58
2022/07/28 02:52:45;;;;;;;10.43;6.60;;;17.50;25.00;;;;;;5003776;28;20841;-58
2022/07/28 02:55:15;;;;;;;8.07;6.03;;;17.50;25.20;;;;;;5004428;28;20463;-58
2022/07/28 02:57:43;;;;;;;8.00;6.40;;;17.40;25.40;;;;;;5001520;28;20943;-58
2022/07/28 03:00:11;;;;;;;9.97;6.43;;;17.40;25.30;;;;;;5004236;28;20479;-58
2022/07/28 03:02:40;;;;;;;8.90;5.40;;;17.40;25.80;;;;;;5024326;28;20992;-57
2022/07/28 03:05:09;;;;;;;8.63;6.60;;;17.40;26.00;;;;;;5024177;28;20471;-58
2022/07/28 03:07:36;;;;;;;8.40;5.80;;;17.30;26.30;;;;;;5023462;28;20470;-58
2022/07/28 03:10:05;;;;;;;7.00;5.70;;;17.30;26.30;;;;;;5030770;28;20483;-58
2022/07/28 03:12:31;;;;;;;10.17;6.03;;;17.30;26.50;;;;;;5020871;28;20475;-57
2022/07/28 03:14:58;;;;;;;8.53;6.47;;;17.30;26.60;;;;;;5023664;28;20832;-56
2022/07/28 03:17:25;;;;;;;8.47;6.10;;;17.20;27.00;;;;;;5023247;28;20493;-57
2022/07/28 03:19:52;;;;;;;8.60;6.20;;;17.30;27.30;;;;;;5020834;28;20593;-58
2022/07/28 03:22:18;;;;;;;10.53;7.30;;;17.20;27.50;;;;;;5026396;28;20466;-58
2022/07/28 03:24:51;;;;;;;10.13;7.30;;;17.20;27.60;;;;;;5026599;28;20458;-56
2022/07/28 03:27:22;;;;;;;11.60;8.33;;;17.20;27.90;;;;;;5026945;28;20466;-59
2022/07/28 03:29:52;;;;;;;11.43;7.93;;;17.10;27.90;;;;;;5026410;28;20490;-58
2022/07/28 03:32:21;;;;;;;12.80;7.67;;;17.10;28.00;;;;;;5027459;28;20978;-58
2022/07/28 03:34:51;;;;;;;9.93;6.93;;;17.10;28.20;;;;;;5027323;28;20462;-59
2022/07/28 03:37:23;;;;;;;10.40;6.77;;;17.10;28.20;;;;;;5026487;28;20996;-58
2022/07/28 03:39:53;;;;;;;13.60;6.80;;;17.10;28.30;;;;;;5022872;28;20482;-57
2022/07/28 03:42:22;;;;;;;10.00;7.60;;;17.00;28.40;;;;;;5025785;28;20447;-58
2022/07/28 03:44:50;;;;;;;9.50;6.27;;;17.00;28.20;;;;;;5027050;28;20481;-57
2022/07/28 03:47:21;;;;;;;8.30;6.57;;;17.10;28.20;;;;;;5025936;28;20459;-58
2022/07/28 03:49:48;;;;;;;9.63;6.90;;;17.00;28.40;;;;;;5024463;28;20564;-57
2022/07/28 03:52:14;;;;;;;12.73;7.63;;;17.00;28.30;;;;;;5026172;28;20847;-58
2022/07/28 03:54:41;;;;;;;11.63;7.50;;;17.00;28.50;;;;;;5024884;28;20463;-57
2022/07/28 03:57:08;;;;;;;12.27;7.60;;;17.00;28.50;;;;;;5026103;28;20467;-58
2022/07/28 03:59:36;;;;;;;9.10;7.10;;;17.00;28.80;;;;;;5026672;28;20485;-57
2022/07/28 04:02:03;;;;;;;10.93;7.67;;;17.00;28.60;;;;;;5021845;28;20471;-58
2022/07/28 04:04:30;;;;;;;9.00;6.70;;;17.00;28.70;;;;;;5026043;28;20459;-58
2022/07/28 04:06:57;;;;;;;9.73;7.03;;;17.00;28.70;;;;;;5023451;28;20471;-57
2022/07/28 04:09:23;;;;;;;10.07;7.30;;;17.00;28.90;;;;;;5026924;28;20490;-58
2022/07/28 04:11:50;;;;;;;14.10;6.57;;;17.00;28.90;;;;;;5023837;28;20475;-58
2022/07/28 04:14:17;;;;;;;12.00;7.07;;;17.00;29.00;;;;;;5027576;28;20458;-57
2022/07/28 04:16:45;;;;;;;10.53;7.70;;;17.00;29.00;;;;;;5024752;28;20588;-58
2022/07/28 04:19:12;;;;;;;10.43;8.03;;;17.00;29.00;;;;;;5026543;28;21013;-57
2022/07/28 04:21:38;;;;;;;11.60;8.27;;;17.10;28.80;;;;;;5024555;28;20458;-56
2022/07/28 04:24:08;;;;;;;11.10;7.13;;;17.10;29.00;;;;;;5026000;28;20458;-57
2022/07/28 04:26:35;;;;;;;9.47;6.97;;;17.10;28.70;;;;;;5026185;28;20467;-58
2022/07/28 04:29:02;;;;;;;10.57;7.60;;;17.20;28.80;;;;;;5021897;28;20483;-57
2022/07/28 04:31:28;;;;;;;12.33;7.07;;;17.20;28.80;;;;;;5025563;28;20479;-58
2022/07/28 04:33:56;;;;;;;8.37;6.60;;;17.30;28.60;;;;;;5023546;28;20831;-57
2022/07/28 04:36:23;;;;;;;9.20;6.80;;;17.30;28.80;;;;;;5025921;28;20470;-58
2022/07/28 04:38:50;;;;;;;9.97;6.73;;;17.30;28.80;;;;;;5022447;28;21029;-61
2022/07/28 04:41:16;;;;;;;9.10;6.70;;;17.40;28.70;;;;;;5024790;28;20462;-62
2022/07/28 04:43:44;;;;;;;8.47;6.40;;;17.40;28.80;;;;;;5023554;28;21164;-60
2022/07/28 04:46:11;;;;;;;10.60;6.47;;;17.50;28.60;;;;;;5025792;28;20502;-60
2022/07/28 04:48:37;;;;;;;8.40;6.20;;;17.50;28.60;;;;;;5027001;28;20463;-60
2022/07/28 04:51:05;;;;;;;14.30;7.07;;;17.60;28.30;;;;;;5023170;28;20482;-60
2022/07/28 04:53:32;;;;;;;9.00;6.63;;;17.70;28.50;;;;;;5024100;28;20478;-61
2022/07/28 04:55:59;;;;;;;8.33;6.67;;;17.70;28.60;;;;;;5023752;28;20471;-61
2022/07/28 04:58:26;;;;;;;10.07;6.67;;;17.80;28.30;;;;;;5026592;28;20560;-62
2022/07/28 05:00:53;;;;;;;14.70;7.30;;;18.00;28.10;;;;;;5020114;28;20545;-60
2022/07/28 05:03:20;;;;;;;11.50;6.30;;;18.20;27.80;;;;;;5024886;28;20463;-61
2022/07/28 05:05:47;;;;;;;8.10;5.50;;;18.90;27.10;;;;;;5023098;28;20922;-60
2022/07/28 05:08:15;;;;;;;7.90;5.73;;;20.30;23.80;;;;;;5025554;28;20554;-62
2022/07/28 05:10:42;;;;;;;12.00;5.70;;;21.90;19.50;;;;;;5022099;28;20577;-66
2022/07/28 05:13:08;;;;;;;7.50;4.73;;;23.20;16.60;;;;;;5018903;28;20491;-64
2022/07/28 05:15:35;;;;;;;9.87;5.50;;;24.60;14.00;;;;;;5023163;28;20458;-65
2022/07/28 05:18:02;;;;;;;7.50;5.80;;;25.80;11.30;;;;;;5024721;28;20451;-66
2022/07/28 05:20:29;;;;;;;8.30;4.80;;;26.90;9.20;;;;;;5023820;28;20497;-66
2022/07/28 05:22:56;;;;;;;7.60;5.00;;;27.90;7.40;;;;;;5021799;28;20459;-66
2022/07/28 05:25:25;;;;;;;6.43;4.90;;;28.80;5.70;;;;;;5023772;28;20470;-66
2022/07/28 05:27:53;;;;;;;7.43;4.93;;;29.70;4.50;;;;;;5030689;28;20457;-65
2022/07/28 05:30:20;;;;;;;6.50;4.43;;;30.40;3.20;;;;;;5023985;28;20533;-65
2022/07/28 05:32:47;;;;;;;6.70;4.20;;;31.20;2.20;;;;;;5024601;28;20538;-64
2022/07/28 05:35:15;;;;;;;6.67;4.40;;;31.80;1.00;;;;;;5024074;28;20466;-66
2022/07/28 05:37:42;;;;;;;9.40;4.90;;;32.50;1.00;;;;;;5024630;28;20878;-62
2022/07/28 05:40:12;;;;;;;7.37;4.90;;;33.20;1.00;;;;;;5023735;28;20470;-64
2022/07/28 05:42:41;;;;;;;7.87;5.00;;;33.80;1.00;;;;;;5023348;28;20567;-64
2022/07/28 05:45:09;;;;;;;6.57;4.90;;;34.30;1.00;;;;;;5023014;28;20459;-66
2022/07/28 05:47:41;;;;;;;7.20;4.90;;;35.00;1.00;;;;;;5020501;28;20493;-65
2022/07/28 05:50:09;;;;;;;11.20;5.53;;;35.60;1.00;;;;;;5022533;28;20479;-64
2022/07/28 05:52:35;;;;;;;7.10;4.83;;;36.20;1.00;;;;;;5024970;28;20486;-66
2022/07/28 05:55:02;;;;;;;8.20;5.07;;;36.80;1.00;;;;;;5018806;28;20475;-66
2022/07/28 05:57:29;;;;;;;7.03;5.00;;;37.30;1.00;;;;;;5022863;28;20470;-66
2022/07/28 05:59:57;;;;;;;9.70;5.57;;;38.00;1.00;;;;;;5022309;28;20482;-67
2022/07/28 06:02:24;;;;;;;10.10;5.90;;;38.60;1.00;;;;;;5018934;28;20467;-67
2022/07/28 06:04:50;;;;;;;10.27;5.30;;;39.10;1.00;;;;;;5022416;28;20470;-65
2022/07/28 06:07:17;;;;;;;10.13;5.43;;;39.40;1.00;;;;;;5022253;28;20455;-67
2022/07/28 06:09:44;;;;;;;7.53;5.33;;;39.60;1.00;;;;;;5026087;28;20477;-67
2022/07/28 06:12:11;;;;;;;12.13;5.20;;;39.90;1.00;;;;;;5018826;28;20483;-66
2022/07/28 06:14:37;;;;;;;6.83;5.47;;;40.10;1.00;;;;;;5021643;28;20566;-66
2022/07/28 06:17:05;;;;;;;7.00;5.97;;;40.40;1.00;;;;;;5017174;28;20466;-67
2022/07/28 06:19:32;;;;;;;8.93;5.70;;;40.60;1.00;;;;;;5020111;28;20523;-66
2022/07/28 06:21:59;;;;;;;8.60;5.73;;;40.80;1.00;;;;;;5021195;28;20462;-67
2022/07/28 06:24:26;;;;;;;9.37;6.13;;;41.10;1.00;;;;;;5025539;28;20459;-66
2022/07/28 06:26:53;;;;;;;8.73;6.10;;;41.60;1.00;;;;;;5025368;28;20475;-68
2022/07/28 06:29:21;;;;;;;7.00;6.00;;;42.00;1.00;;;;;;5025061;28;20481;-67
2022/07/28 06:31:48;;;;;;;7.70;5.90;;;42.20;1.00;;;;;;5029241;28;20565;-68
2022/07/28 06:34:16;;;;;;;8.37;5.40;;;42.50;1.00;;;;;;5021015;28;20464;-68
2022/07/28 06:36:43;;;;;;;7.17;5.83;;;43.10;1.00;;;;;;5022007;28;20463;-68
2022/07/28 06:39:09;;;;;;;7.23;6.33;;;43.80;1.00;;;;;;5021210;28;20487;-68
2022/07/28 06:41:40;;;;;;;6.10;5.00;;;44.30;1.00;;;;;;5023183;28;20467;-67
2022/07/28 06:44:07;;;;;;;7.70;5.87;;;44.90;1.00;;;;;;5022624;28;20454;-68
2022/07/28 06:46:33;;;;;;;6.33;5.57;;;45.00;1.00;;;;;;5019655;28;20977;-68
2022/07/28 06:49:00;;;;;;;7.73;5.87;;;45.10;1.00;;;;;;5017432;28;20525;-67
2022/07/28 06:51:29;;;;;;;7.20;5.67;;;45.80;1.00;;;;;;5027913;28;20451;-68
2022/07/28 06:53:56;;;;;;;7.10;6.00;;;46.10;1.00;;;;;;5017122;28;20471;-67
2022/07/28 06:56:23;;;;;;;7.47;5.70;;;45.80;1.00;;;;;;5031071;28;20454;-68
2022/07/28 06:58:50;;;;;;;7.97;6.20;;;45.90;1.00;;;;;;5038114;28;20452;-68
2022/07/28 07:01:17;;;;;;;8.20;6.23;;;46.40;1.00;;;;;;5023433;28;20474;-68
2022/07/28 07:03:44;;;;;;;6.87;6.17;;;46.40;1.00;;;;;;5017805;28;20448;-68
2022/07/28 07:06:11;;;;;;;8.27;5.77;;;46.00;1.00;;;;;;5015021;28;20462;-68
2022/07/28 07:08:39;;;;;;;6.30;5.57;;;46.50;1.00;;;;;;5012733;28;20455;-67
2022/07/28 07:11:05;;;;;;;6.47;5.67;;;47.30;1.00;;;;;;5014325;28;20588;-68
2022/07/28 07:13:32;;;;;;;8.80;5.90;;;48.00;1.00;;;;;;5018455;28;20483;-68
2022/07/28 07:15:59;;;;;;;7.57;5.80;;;48.60;1.00;;;;;;5015624;28;20878;-68
2022/07/28 07:18:26;;;;;;;7.47;5.73;;;48.80;1.00;;;;;;5009456;28;20463;-68
2022/07/28 07:20:53;;;;;;;7.27;5.80;;;48.80;1.00;;;;;;5011015;28;22940;-68
2022/07/28 07:23:20;;;;;;;6.27;4.97;;;49.10;1.00;;;;;;5016719;28;20459;-68
2022/07/28 07:25:48;;;;;;;6.10;5.47;;;49.60;1.00;;;;;;5013884;28;20463;-67
2022/07/28 07:28:15;;;;;;;7.47;5.70;;;50.30;1.00;;;;;;5013185;28;20467;-67
2022/07/28 07:30:41;;;;;;;7.60;5.10;;;50.00;1.00;;;;;;5012027;28;20511;-69
2022/07/28 07:33:08;;;;;;;6.83;5.50;;;49.60;1.00;;;;;;5002113;28;20498;-68
2022/07/28 07:35:36;;;;;;;7.80;4.97;;;49.90;1.00;;;;;;5007204;28;20456;-67
2022/07/28 07:38:04;;;;;;;6.43;5.47;;;50.20;1.00;;;;;;5003235;28;20467;-68
2022/07/28 07:40:31;;;;;;;8.20;5.20;;;50.80;1.00;;;;;;5008748;28;20581;-68
2022/07/28 07:42:59;;;;;;;6.50;4.70;;;51.50;1.00;;;;;;4996254;28;20825;-68
2022/07/28 07:45:26;;;;;;;5.80;4.73;;;51.80;1.00;;;;;;5011836;28;20920;-68
2022/07/28 07:47:52;;;;;;;5.43;4.67;;;52.50;1.00;;;;;;5004503;28;20960;-69
2022/07/28 07:50:19;;;;;;;9.00;5.27;;;53.10;1.00;;;;;;5000728;28;20877;-69
2022/07/28 07:52:48;;;;;;;7.57;5.20;;;53.40;1.00;;;;;;4999742;28;20483;-68
2022/07/28 07:55:15;;;;;;;7.13;5.00;;;53.50;1.00;;;;;;5005172;28;20462;-69
2022/07/28 07:57:42;;;;;;;8.90;5.37;;;53.50;1.00;;;;;;5007786;28;20456;-69
2022/07/28 08:00:11;;;;;;;7.43;5.70;;;53.70;1.00;;;;;;5006302;28;20482;-69
2022/07/28 08:02:38;;;;;;;8.40;5.17;;;53.70;1.00;;;;;;5026496;28;20477;-69
2022/07/28 08:05:06;;;;;;;7.13;5.13;;;53.90;1.00;;;;;;5023266;28;20450;-69
2022/07/28 08:07:33;;;;;;;6.57;5.00;;;53.90;1.00;;;;;;5027003;28;20458;-68
2022/07/28 08:10:00;;;;;;;5.97;4.80;;;54.10;1.00;;;;;;5027788;28;20475;-68
2022/07/28 08:12:27;;;;;;;5.83;5.23;;;54.50;1.00;;;;;;5030143;28;20984;-69
2022/07/28 08:14:55;;;;;;;5.87;5.20;;;54.10;1.00;;;;;;5026284;28;20468;-69
2022/07/28 08:17:23;;;;;;;6.90;5.73;;;53.60;1.00;;;;;;5027254;28;21106;-69
2022/07/28 08:19:50;;;;;;;6.23;5.47;;;53.10;1.00;;;;;;5028303;28;20490;-68
2022/07/28 08:22:17;;;;;;;6.17;5.30;;;53.30;1.00;;;;;;5028739;28;20454;-69
2022/07/28 08:24:44;;;;;;;7.27;5.50;;;53.20;1.00;;;;;;5030025;28;20442;-68
2022/07/28 08:27:10;;;;;;;7.87;5.20;;;53.40;1.00;;;;;;5029098;28;20462;-68
2022/07/28 08:29:37;;;;;;;7.47;5.90;;;53.60;1.00;;;;;;5028687;28;20577;-69
2022/07/28 08:32:04;;;;;;;6.33;4.77;;;54.00;1.00;;;;;;5026978;28;20475;-69
2022/07/28 08:34:33;;;;;;;5.10;4.57;;;54.30;1.00;;;;;;5029031;28;20474;-68
2022/07/28 08:37:00;;;;;;;8.17;4.83;;;54.80;1.00;;;;;;5012397;28;20451;-68
2022/07/28 08:39:27;;;;;;;7.93;4.57;;;55.40;1.00;;;;;;5026678;28;20470;-69
2022/07/28 08:41:58;;;;;;;6.03;5.43;;;55.70;1.00;;;;;;5023504;28;20473;-68
2022/07/28 08:44:30;;;;;;;8.33;5.40;;;55.90;1.00;;;;;;5027598;28;20450;-69
2022/07/28 08:46:58;;;;;;;6.07;5.33;;;55.90;1.00;;;;;;5028577;28;20548;-69
2022/07/28 08:49:27;;;;;;;6.97;4.90;;;56.30;1.00;;;;;;5026769;28;20474;-68
2022/07/28 08:51:59;;;;;;;5.93;4.83;;;56.20;1.00;;;;;;5027883;28;20470;-68
2022/07/28 08:54:28;;;;;;;5.43;4.90;;;56.40;1.00;;;;;;5026540;28;21006;-68
2022/07/28 08:56:55;;;;;;;6.10;4.67;;;56.30;1.00;;;;;;5027659;28;20791;-69
2022/07/28 08:59:23;;;;;;;6.93;5.10;;;56.60;1.00;;;;;;5029477;28;20838;-68
2022/07/28 09:01:51;;;;;;;5.90;5.00;;;56.30;1.00;;;;;;5027995;28;20474;-67
2022/07/28 09:04:19;;;;;;;5.70;4.90;;;55.50;1.00;;;;;;5021097;28;20766;-69
2022/07/28 09:06:46;;;;;;;6.37;5.33;;;55.30;1.00;;;;;;5024666;28;20549;-69
2022/07/28 09:09:14;;;;;;;6.00;4.70;;;55.30;1.00;;;;;;5025558;28;20471;-68
2022/07/28 09:11:41;;;;;;;5.77;5.17;;;55.50;1.00;;;;;;5025409;28;20462;-69
2022/07/28 09:14:08;;;;;;;5.07;4.50;;;55.30;1.00;;;;;;5022648;28;20478;-68
2022/07/28 09:16:35;;;;;;;6.60;4.40;;;54.90;1.00;;;;;;5025859;28;20965;-69
2022/07/28 09:19:02;;;;;;;6.87;5.13;;;54.90;1.00;;;;;;5025626;28;20513;-69
2022/07/28 09:21:29;;;;;;;7.00;4.60;;;55.30;1.00;;;;;;5027377;28;20470;-69
2022/07/28 09:23:56;;;;;;;8.07;5.40;;;54.70;1.00;;;;;;5027728;28;20455;-68
2022/07/28 09:26:24;;;;;;;5.80;4.30;;;53.90;1.00;;;;;;5026139;28;20458;-68
2022/07/28 09:28:53;;;;;;;10.67;5.40;;;54.00;1.00;;;;;;5027998;28;20484;-69
2022/07/28 09:31:21;;;;;;;5.53;4.53;;;53.70;1.00;;;;;;5023504;28;20468;-67
2022/07/28 09:33:56;;;;;;;7.83;4.73;;;53.20;1.00;;;;;;5021556;28;20474;-68
2022/07/28 09:36:23;;;;;;;6.40;4.57;;;52.20;1.00;;;;;;5020588;28;20458;-68
2022/07/28 09:38:49;;;;;;;6.17;4.43;;;51.70;1.00;;;;;;5027236;28;20828;-68
2022/07/28 09:41:20;;;;;;;6.93;4.67;;;51.20;1.00;;;;;;5023553;28;20474;-69
2022/07/28 09:43:50;;;;;;;7.67;3.90;;;51.00;1.00;;;;;;5024562;28;20451;-66
2022/07/28 09:46:19;;;;;;;6.80;5.03;;;51.70;1.00;;;;;;5027529;28;20478;-68
2022/07/28 09:49:04;;;;;;;8.17;5.27;;;52.40;1.00;;;;;;5025685;28;20966;-67
2022/07/28 09:51:33;;;;;;;6.00;4.17;;;52.30;1.00;;;;;;5024795;28;20454;-68
2022/07/28 09:54:10;;;;;;;6.67;4.37;;;51.20;1.00;;;;;;5023060;28;20474;-67
2022/07/28 09:56:38;;;;;;;5.77;4.70;;;51.00;1.00;;;;;;5026704;28;20462;-68
2022/07/28 09:59:07;;;;;;;7.60;5.20;;;50.30;1.00;;;;;;5020096;28;20526;-68
2022/07/28 10:01:49;;;;;;;6.10;4.17;;;48.30;1.00;;;;;;5021155;28;20529;-67
2022/07/28 10:04:16;;;;;;;5.67;4.63;;;45.80;1.00;;;;;;5027842;28;20450;-68
2022/07/28 10:06:43;;;;;;;6.60;4.23;;;42.80;1.00;;;;;;5029718;28;20459;-67
2022/07/28 10:09:13;;;;;;;5.87;4.33;;;40.40;1.00;;;;;;5026079;28;20506;-67
2022/07/28 10:11:39;;;;;;;9.30;4.90;;;39.00;1.00;;;;;;5026987;28;20550;-68
2022/07/28 10:14:08;;;;;;;6.63;4.27;;;38.20;1.00;;;;;;5026528;28;20477;-66
2022/07/28 10:16:36;;;;;;;7.60;4.53;;;37.60;1.00;;;;;;5023484;28;20458;-67
2022/07/28 10:19:05;;;;;;;7.17;4.80;;;36.80;1.00;;;;;;5019042;28;20494;-68
2022/07/28 10:21:34;;;;;;;8.57;4.87;;;35.90;1.00;;;;;;5025710;28;20455;-67
2022/07/28 10:24:06;;;;;;;9.50;5.70;;;35.20;1.00;;;;;;5020102;28;20972;-68
2022/07/28 10:26:37;;;;;;;7.13;5.77;;;34.50;1.00;;;;;;5027632;28;20451;-68
2022/07/28 10:29:07;;;;;;;6.30;4.43;;;34.10;1.00;;;;;;5021868;28;20525;-67
2022/07/28 10:31:41;;;;;;;8.87;5.53;;;33.50;1.00;;;;;;5023182;28;20463;-67
2022/07/28 10:34:14;;;;;;;7.00;4.80;;;33.00;1.00;;;;;;5024208;28;20812;-68
2022/07/28 10:36:42;;;;;;;10.07;5.43;;;32.60;1.00;;;;;;5022825;28;20836;-68
2022/07/28 10:39:13;;;;;;;8.27;5.53;;;32.20;1.00;;;;;;5024941;28;21030;-68
2022/07/28 10:41:42;;;;;;;6.80;4.87;;;32.00;1.00;;;;;;5023820;28;20463;-67
2022/07/28 10:44:12;;;;;;;9.63;4.80;;;31.90;1.00;;;;;;5023089;28;20451;-66
2022/07/28 10:46:43;;;;;;;8.90;4.90;;;31.60;1.00;;;;;;5023876;28;20950;-67
2022/07/28 10:49:10;;;;;;;7.87;5.47;;;31.30;1.00;;;;;;5024124;28;20558;-66
2022/07/28 10:51:39;;;;;;;6.13;4.43;;;31.20;1.00;;;;;;5025684;28;20458;-66
2022/07/28 10:54:13;;;;;;;8.50;5.23;;;31.00;1.60;;;;;;5024755;28;20478;-67
2022/07/28 10:56:52;;;;;;;7.53;4.97;;;30.90;1.00;;;;;;5024360;28;20455;-66
2022/07/28 10:59:35;;;;;;;8.70;4.90;;;30.90;1.30;;;;;;5023261;28;20829;-66
2022/07/28 11:02:04;;;;;;;6.77;4.20;;;30.80;1.00;;;;;;5024584;28;21859;-66
2022/07/28 11:04:57;;;;;;;6.37;4.17;;;30.60;1.00;;;;;;5023336;28;20473;-67
2022/07/28 11:07:38;;;;;;;7.53;4.40;;;30.40;1.20;;;;;;5025255;28;20465;-66
2022/07/28 11:10:15;;;;;;;8.67;5.13;;;30.30;1.50;;;;;;5024607;28;21065;-67
2022/07/28 11:12:48;;;;;;;7.50;3.80;;;30.30;1.60;;;;;;5022391;28;20454;-66
2022/07/28 11:15:29;;;;;;;7.27;4.13;;;30.30;1.90;;;;;;5020217;28;21199;-66
2022/07/28 11:18:06;;;;;;;8.43;4.53;;;30.30;1.00;;;;;;5022182;28;20454;-66
2022/07/28 11:21:08;;;;;;;5.97;4.20;;;30.30;1.20;;;;;;5024072;28;20486;-65
2022/07/28 11:23:47;;;;;;;10.30;4.97;;;30.20;1.00;;;;;;5025892;28;20545;-66
2022/07/28 11:26:37;;;;;;;7.00;4.13;;;29.90;1.00;;;;;;5024013;28;20454;-66
2022/07/28 11:29:22;;;;;;;6.40;4.20;;;29.50;1.70;;;;;;5024426;28;20486;-67
2022/07/28 11:32:00;;;;;;;9.37;4.70;;;29.30;2.20;;;;;;5022678;28;20471;-66
2022/07/28 11:35:18;;;;;;;7.30;4.07;;;29.10;2.30;;;;;;5022766;28;20479;-66
2022/07/28 11:38:09;;;;;;;7.43;4.50;;;28.90;2.70;;;;;;5024214;28;20455;-66
2022/07/28 11:40:39;;;;;;;6.80;4.60;;;28.90;3.00;;;;;;5025176;28;20486;-66
2022/07/28 11:43:32;;;;;;;6.63;4.57;;;28.90;3.00;;;;;;5027418;28;20443;-67
2022/07/28 11:46:38;;;;;;;5.60;4.23;;;28.90;3.30;;;;;;5024824;28;20471;-66
2022/07/28 11:49:26;;;;;;;7.07;4.33;;;28.90;3.70;;;;;;5026168;28;20528;-68
2022/07/28 11:52:15;;;;;;;9.90;5.13;;;28.90;3.30;;;;;;5029037;28;20485;-67
2022/07/28 11:54:47;;;;;;;8.53;4.37;;;29.10;3.80;;;;;;5030253;28;20811;-64
2022/07/28 11:57:15;;;;;;;6.77;4.20;;;29.20;3.60;;;;;;5024242;28;21193;-68
2022/07/28 11:59:43;;;;;;;5.73;3.67;;;29.20;3.10;;;;;;5028826;28;20475;-68
2022/07/28 12:02:14;;;;;;;8.40;4.90;;;29.20;2.90;;;;;;5023082;28;20481;-68
2022/07/28 12:04:41;;;;;;;7.73;3.90;;;29.10;2.70;;;;;;5027158;28;20951;-67
2022/07/28 12:07:10;;;;;;;7.40;3.87;;;29.00;2.60;;;;;;5030199;28;20459;-67
2022/07/28 12:09:38;;;;;;;6.30;3.90;;;29.00;3.50;;;;;;5026221;28;20479;-68
2022/07/28 12:12:07;;;;;;;7.20;3.67;;;29.10;3.20;;;;;;5027282;28;20456;-68
2022/07/28 12:14:39;;;;;;;7.40;3.63;;;29.20;3.30;;;;;;5025772;28;20478;-67
2022/07/28 12:17:06;;;;;;;6.33;3.90;;;29.40;3.20;;;;;;5022765;28;20584;-67
2022/07/28 12:19:32;;;;;;;5.47;3.80;;;29.50;2.10;;;;;;5022155;28;20483;-67
2022/07/28 12:21:59;;;;;;;8.80;3.30;;;29.40;1.60;;;;;;5030272;28;20458;-68
2022/07/28 12:24:30;;;;;;;7.57;3.63;;;29.30;2.20;;;;;;5029314;28;20989;-67
2022/07/28 12:26:58;;;;;;;10.20;4.60;;;29.30;2.10;;;;;;5029797;28;20466;-67
2022/07/28 12:29:30;;;;;;;5.93;3.50;;;29.40;2.40;;;;;;5026708;28;20470;-68
2022/07/28 12:31:58;;;;;;;6.50;3.80;;;29.50;2.20;;;;;;5022969;28;20514;-67
2022/07/28 12:34:25;;;;;;;6.20;4.00;;;29.50;2.30;;;;;;5028770;28;21256;-67
2022/07/28 12:36:53;;;;;;;5.30;3.30;;;29.40;2.10;;;;;;5029624;28;20454;-67
2022/07/28 12:39:21;;;;;;;4.60;3.00;;;29.40;1.80;;;;;;5029764;28;20478;-68
2022/07/28 12:42:00;;;;;;;7.57;3.83;;;29.50;2.20;;;;;;5027492;28;20463;-68
2022/07/28 12:44:33;;;;;;;7.67;4.13;;;29.60;2.30;;;;;;5024371;28;20475;-68
2022/07/28 12:47:01;;;;;;;5.07;3.40;;;29.60;1.70;;;;;;5027919;28;20456;-68
2022/07/28 12:49:27;;;;;;;5.40;3.27;;;29.50;1.80;;;;;;5027262;28;20497;-68
2022/07/28 12:51:54;;;;;;;5.57;3.77;;;29.40;2.20;;;;;;5022019;28;20470;-68
2022/07/28 12:54:34;;;;;;;6.03;3.90;;;29.40;2.00;;;;;;5023065;28;21082;-64
2022/07/28 12:57:03;;;;;;;5.67;3.87;;;29.50;2.30;;;;;;5025415;28;20455;-64
2022/07/28 12:59:34;;;;;;;7.23;3.90;;;29.60;1.70;;;;;;5026711;28;20497;-65
2022/07/28 13:02:01;;;;;;;8.30;4.03;;;29.60;1.50;;;;;;5026666;28;20487;-65